createdAt,value
2019-02-02T00:02:05.634Z,0.50
2019-02-02T00:04:34.900Z,0.50
2019-02-02T00:07:04.402Z,0.50
2019-02-02T00:09:33.577Z,0.50
2019-02-02T00:12:02.849Z,0.60
2019-02-02T00:14:32.112Z,0.60
2019-02-02T00:17:01.403Z,0.70
2019-02-02T00:19:30.575Z,0.70
2019-02-02T00:21:59.784Z,0.60
2019-02-02T00:24:28.984Z,0.60
2019-02-02T00:26:58.180Z,0.50
2019-02-02T00:29:27.432Z,0.50
2019-02-02T00:31:56.604Z,0.50
2019-02-02T00:34:25.793Z,0.50
2019-02-02T00:36:55.055Z,0.50
2019-02-02T00:39:24.332Z,0.50
2019-02-02T00:41:53.512Z,0.50
2019-02-02T00:44:22.726Z,0.50
2019-02-02T00:46:51.903Z,0.50
2019-02-02T00:49:21.109Z,0.50
2019-02-02T00:51:50.296Z,0.50
2019-02-02T00:54:19.522Z,0.50
2019-02-02T00:56:48.694Z,0.50
2019-02-02T00:59:17.900Z,0.50
2019-02-02T01:01:47.093Z,0.40
2019-02-02T01:04:16.294Z,0.40
2019-02-02T01:06:45.475Z,0.40
2019-02-02T01:09:25.181Z,0.40
2019-02-02T01:11:54.458Z,0.30
2019-02-02T01:14:23.651Z,0.30
2019-02-02T01:16:52.836Z,0.30
2019-02-02T01:19:22.030Z,0.40
2019-02-02T01:21:51.213Z,0.50
2019-02-02T01:24:20.427Z,0.50
2019-02-02T01:26:49.613Z,0.50
2019-02-02T01:29:18.886Z,0.50
2019-02-02T01:31:48.156Z,0.70
2019-02-02T01:34:17.530Z,0.70
2019-02-02T01:36:46.729Z,0.70
2019-02-02T01:39:15.950Z,0.70
2019-02-02T01:41:45.125Z,0.70
2019-02-02T01:44:14.339Z,0.60
2019-02-02T01:46:43.533Z,0.60
2019-02-02T01:49:12.925Z,0.50
2019-02-02T01:51:42.138Z,0.60
2019-02-02T01:54:11.343Z,0.50
2019-02-02T01:56:40.547Z,0.40
2019-02-02T01:59:09.725Z,0.30
2019-02-02T02:01:41.617Z,0.30
2019-02-02T02:04:09.847Z,0.20
2019-02-02T02:06:39.134Z,0.20
2019-02-02T02:09:08.941Z,0.10
2019-02-02T02:11:38.217Z,0.20
2019-02-02T02:14:07.420Z,0.10
2019-02-02T02:16:36.677Z,0.20
2019-02-02T02:19:05.861Z,0.00
2019-02-02T02:21:35.193Z,0.00
2019-02-02T02:24:04.572Z,-0.10
2019-02-02T02:26:33.995Z,0.00
2019-02-02T02:29:03.287Z,-0.20
2019-02-02T02:31:32.499Z,-0.30
2019-02-02T02:34:01.691Z,-0.30
2019-02-02T02:36:30.892Z,-0.40
2019-02-02T02:39:00.069Z,-0.40
2019-02-02T02:41:29.288Z,-0.30
2019-02-02T02:43:58.488Z,-0.20
2019-02-02T02:46:27.711Z,-0.20
2019-02-02T02:48:56.892Z,-0.30
2019-02-02T02:51:26.089Z,-0.20
2019-02-02T02:53:55.396Z,-0.20
2019-02-02T02:56:24.649Z,-0.20
2019-02-02T02:58:53.860Z,-0.10
2019-02-02T03:01:23.132Z,-0.10
2019-02-02T03:03:52.338Z,-0.10
2019-02-02T03:06:21.609Z,0.00
2019-02-02T03:08:50.812Z,-0.10
2019-02-02T03:11:19.985Z,0.00
2019-02-02T03:13:49.182Z,0.10
2019-02-02T03:16:18.454Z,0.20
2019-02-02T03:18:47.743Z,0.20
2019-02-02T03:21:17.004Z,0.20
2019-02-02T03:23:46.276Z,0.20
2019-02-02T03:26:15.496Z,0.30
2019-02-02T03:28:53.266Z,0.10
2019-02-02T03:31:15.653Z,0.10
2019-02-02T03:33:44.920Z,0.20
2019-02-02T03:36:14.200Z,0.10
2019-02-02T03:38:43.392Z,0.00
2019-02-02T03:41:12.618Z,0.00
2019-02-02T03:43:41.917Z,0.00
2019-02-02T03:46:11.116Z,0.10
2019-02-02T03:48:40.312Z,0.10
2019-02-02T03:51:09.517Z,0.00
2019-02-02T03:53:41.258Z,-0.10
2019-02-02T03:56:09.751Z,0.00
2019-02-02T03:58:38.935Z,0.00
2019-02-02T04:01:08.241Z,-0.10
2019-02-02T04:03:37.615Z,-0.10
2019-02-02T04:06:06.837Z,0.00
2019-02-02T04:08:36.036Z,0.00
2019-02-02T04:11:05.432Z,0.10
2019-02-02T04:13:34.636Z,0.00
2019-02-02T04:16:03.828Z,0.00
2019-02-02T04:18:33.058Z,0.10
2019-02-02T04:21:02.386Z,0.20
2019-02-02T04:23:31.663Z,0.20
2019-02-02T04:26:00.891Z,0.20
2019-02-02T04:28:30.185Z,0.30
2019-02-02T04:30:59.657Z,0.20
2019-02-02T04:33:28.832Z,0.20
2019-02-02T04:35:58.042Z,0.20
2019-02-02T04:38:27.299Z,0.20
2019-02-02T04:40:56.505Z,0.30
2019-02-02T04:43:25.782Z,0.30
2019-02-02T04:45:54.980Z,0.40
2019-02-02T04:48:24.257Z,0.40
2019-02-02T04:50:53.485Z,0.40
2019-02-02T04:53:22.754Z,0.40
2019-02-02T04:55:52.061Z,0.40
2019-02-02T04:58:21.335Z,0.40
2019-02-02T05:00:50.530Z,0.40
2019-02-02T05:03:19.721Z,0.40
2019-02-02T05:05:49.027Z,0.30
2019-02-02T05:08:18.213Z,0.30
2019-02-02T05:10:47.411Z,0.30
2019-02-02T05:13:16.574Z,0.30
2019-02-02T05:15:45.772Z,0.30
2019-02-02T05:18:15.073Z,0.30
2019-02-02T05:20:44.249Z,0.20
2019-02-02T05:23:13.521Z,0.30
2019-02-02T05:25:42.776Z,0.40
2019-02-02T05:28:12.007Z,0.50
2019-02-02T05:30:41.243Z,0.60
2019-02-02T05:33:10.524Z,0.40
2019-02-02T05:35:39.723Z,0.40
2019-02-02T05:38:09.115Z,0.50
2019-02-02T05:40:38.372Z,0.40
2019-02-02T05:43:07.576Z,0.40
2019-02-02T05:45:36.764Z,0.40
2019-02-02T05:48:06.047Z,0.30
2019-02-02T05:50:35.243Z,0.40
2019-02-02T05:53:04.731Z,0.40
2019-02-02T05:55:34.047Z,0.40
2019-02-02T05:58:03.252Z,0.40
2019-02-02T06:00:57.532Z,0.50
2019-02-02T06:03:26.842Z,0.50
2019-02-02T06:05:56.028Z,0.60
2019-02-02T06:08:25.228Z,0.60
2019-02-02T06:10:54.428Z,0.60
2019-02-02T06:13:23.643Z,0.70
2019-02-02T06:15:52.824Z,0.60
2019-02-02T06:18:22.107Z,0.60
2019-02-02T06:20:51.327Z,0.50
2019-02-02T06:23:20.520Z,0.50
2019-02-02T06:25:49.721Z,0.50
2019-02-02T06:28:18.919Z,0.50
2019-02-02T06:30:48.222Z,0.60
2019-02-02T06:33:17.500Z,0.40
2019-02-02T06:35:46.716Z,0.50
2019-02-02T06:38:15.916Z,0.50
2019-02-02T06:40:45.117Z,0.40
2019-02-02T06:43:14.360Z,0.30
2019-02-02T06:45:43.580Z,0.30
2019-02-02T06:48:12.760Z,0.70
2019-02-02T06:50:41.976Z,0.70
2019-02-02T06:53:11.157Z,0.70
2019-02-02T06:55:40.444Z,0.80
2019-02-02T06:58:09.736Z,0.90
2019-02-02T07:00:39.012Z,0.90
2019-02-02T07:03:08.210Z,0.90
2019-02-02T07:05:37.408Z,1.00
2019-02-02T07:08:06.594Z,1.10
2019-02-02T07:10:35.864Z,1.00
2019-02-02T07:13:05.312Z,1.00
2019-02-02T07:15:34.508Z,0.90
2019-02-02T07:18:03.990Z,0.80
2019-02-02T07:20:33.252Z,0.90
2019-02-02T07:23:02.442Z,0.70
2019-02-02T07:25:31.678Z,0.70
2019-02-02T07:28:00.876Z,0.60
2019-02-02T07:30:30.120Z,0.60
2019-02-02T07:32:59.288Z,0.60
2019-02-02T07:35:28.592Z,0.50
2019-02-02T07:37:57.784Z,0.50
2019-02-02T07:40:26.984Z,0.50
2019-02-02T07:42:56.206Z,0.60
2019-02-02T07:45:30.270Z,0.60
2019-02-02T07:47:59.462Z,0.70
2019-02-02T07:50:28.665Z,0.70
2019-02-02T07:52:57.866Z,0.80
2019-02-02T07:55:27.100Z,0.80
2019-02-02T07:57:56.279Z,0.90
2019-02-02T08:00:40.897Z,0.90
2019-02-02T08:03:06.329Z,1.00
2019-02-02T08:05:35.561Z,1.00
2019-02-02T08:08:05.545Z,1.00
2019-02-02T08:10:34.858Z,1.00
2019-02-02T08:13:04.649Z,1.10
2019-02-02T08:15:34.302Z,1.10
2019-02-02T08:18:03.689Z,1.10
2019-02-02T08:20:32.866Z,1.20
2019-02-02T08:23:02.134Z,1.20
2019-02-02T08:25:31.411Z,1.20
2019-02-02T08:28:00.625Z,1.40
2019-02-02T08:30:31.899Z,1.50
2019-02-02T08:33:01.180Z,1.50
2019-02-02T08:35:30.474Z,1.50
2019-02-02T08:37:59.772Z,1.60
2019-02-02T08:40:29.012Z,1.60
2019-02-02T08:42:58.312Z,1.50
2019-02-02T08:45:27.515Z,1.60
2019-02-02T08:47:56.717Z,1.60
2019-02-02T08:50:31.346Z,1.60
2019-02-02T08:53:00.615Z,1.60
2019-02-02T08:55:30.172Z,1.70
2019-02-02T08:57:59.490Z,1.70
2019-02-02T09:00:28.755Z,1.70
2019-02-02T09:03:04.058Z,1.70
2019-02-02T09:05:33.246Z,1.70
2019-02-02T09:08:02.429Z,1.70
2019-02-02T09:10:31.634Z,1.70
2019-02-02T09:13:00.959Z,1.80
2019-02-02T09:15:30.399Z,1.80
2019-02-02T09:17:59.585Z,1.90
2019-02-02T09:20:28.947Z,1.90
2019-02-02T09:23:06.054Z,1.90
2019-02-02T09:25:29.244Z,1.90
2019-02-02T09:27:58.569Z,1.90
2019-02-02T09:30:38.065Z,2.00
2019-02-02T09:33:08.076Z,2.00
2019-02-02T09:35:37.284Z,2.00
2019-02-02T09:38:06.775Z,2.10
2019-02-02T09:40:35.975Z,2.20
2019-02-02T09:43:06.040Z,2.20
2019-02-02T09:45:35.231Z,2.30
2019-02-02T09:48:04.436Z,2.30
2019-02-02T09:50:33.757Z,2.40
2019-02-02T09:53:02.949Z,2.50
2019-02-02T09:55:32.230Z,2.60
2019-02-02T09:58:04.667Z,2.60
2019-02-02T10:00:34.228Z,2.70
2019-02-02T10:03:03.396Z,2.80
2019-02-02T10:05:32.862Z,2.90
2019-02-02T10:08:02.139Z,3.00
2019-02-02T10:10:33.078Z,3.00
2019-02-02T10:13:02.289Z,3.10
2019-02-02T10:15:31.520Z,3.20
2019-02-02T10:18:00.731Z,3.20
2019-02-02T10:20:30.671Z,3.30
2019-02-02T10:23:00.596Z,3.80
2019-02-02T10:25:30.708Z,4.20
2019-02-02T10:28:00.016Z,4.40
2019-02-02T10:30:43.437Z,4.40
2019-02-02T10:33:13.965Z,4.30
2019-02-02T10:35:43.208Z,4.20
2019-02-02T10:38:12.404Z,4.20
2019-02-02T10:40:41.667Z,4.30
2019-02-02T10:43:10.852Z,4.50
2019-02-02T10:45:59.180Z,4.40
2019-02-02T10:48:28.392Z,4.30
2019-02-02T10:50:57.710Z,4.30
2019-02-02T10:53:26.892Z,4.60
2019-02-02T10:55:56.171Z,4.70
2019-02-02T10:58:25.426Z,4.80
2019-02-02T11:00:54.823Z,5.00
2019-02-02T11:03:24.136Z,5.20
2019-02-02T11:05:53.476Z,5.10
2019-02-02T11:08:22.845Z,5.10
2019-02-02T11:10:52.191Z,5.20
2019-02-02T11:13:21.563Z,5.20
2019-02-02T11:15:50.968Z,5.40
2019-02-02T11:18:20.308Z,5.50
2019-02-02T11:20:49.888Z,5.60
2019-02-02T11:23:19.363Z,5.60
2019-02-02T11:25:48.744Z,5.70
2019-02-02T11:28:18.143Z,5.90
2019-02-02T11:30:47.634Z,5.90
2019-02-02T11:33:16.982Z,6.00
2019-02-02T11:35:46.200Z,6.00
2019-02-02T11:38:15.396Z,6.10
2019-02-02T11:40:44.694Z,6.20
2019-02-02T11:43:13.997Z,6.20
2019-02-02T11:45:43.502Z,6.40
2019-02-02T11:48:14.972Z,6.50
2019-02-02T11:50:43.837Z,6.60
2019-02-02T11:53:13.141Z,6.60
2019-02-02T11:55:42.447Z,6.70
2019-02-02T11:58:11.647Z,6.80
2019-02-02T12:00:42.618Z,6.70
2019-02-02T12:03:11.841Z,6.80
2019-02-02T12:05:41.141Z,6.90
2019-02-02T12:08:10.512Z,7.00
2019-02-02T12:10:39.692Z,7.00
2019-02-02T12:13:08.986Z,6.90
2019-02-02T12:15:38.264Z,7.00
2019-02-02T12:18:07.793Z,6.90
2019-02-02T12:20:36.993Z,6.70
2019-02-02T12:23:06.195Z,6.60
2019-02-02T12:25:35.519Z,6.60
2019-02-02T12:28:05.085Z,6.60
2019-02-02T12:30:36.116Z,6.50
2019-02-02T12:33:06.324Z,6.60
2019-02-02T12:35:35.737Z,6.80
2019-02-02T12:38:05.165Z,6.70
2019-02-02T12:40:34.493Z,6.80
2019-02-02T12:43:03.872Z,6.80
2019-02-02T12:45:39.089Z,6.90
2019-02-02T12:48:08.311Z,6.90
2019-02-02T12:50:37.734Z,6.80
2019-02-02T12:53:07.017Z,6.80
2019-02-02T12:55:36.325Z,6.80
2019-02-02T12:58:07.001Z,6.80
2019-02-02T13:00:36.390Z,6.90
2019-02-02T13:03:06.737Z,7.00
2019-02-02T13:05:38.901Z,6.90
2019-02-02T13:08:07.025Z,7.00
2019-02-02T13:10:36.385Z,7.20
2019-02-02T13:13:05.833Z,7.30
2019-02-02T13:15:35.149Z,7.30
2019-02-02T13:18:04.471Z,7.30
2019-02-02T13:20:33.693Z,7.50
2019-02-02T13:23:03.014Z,7.40
2019-02-02T13:25:34.342Z,7.40
2019-02-02T13:28:04.102Z,7.20
2019-02-02T13:30:35.388Z,7.20
2019-02-02T13:33:05.404Z,7.10
2019-02-02T13:35:36.776Z,7.00
2019-02-02T13:38:06.313Z,6.90
2019-02-02T13:40:35.588Z,6.90
2019-02-02T13:43:05.076Z,7.00
2019-02-02T13:45:34.382Z,6.90
2019-02-02T13:48:03.684Z,6.90
2019-02-02T13:50:33.333Z,6.90
2019-02-02T13:53:02.642Z,6.90
2019-02-02T13:55:31.865Z,7.00
2019-02-02T13:58:01.225Z,7.10
2019-02-02T14:00:31.732Z,7.30
2019-02-02T14:03:03.222Z,7.30
2019-02-02T14:05:32.116Z,7.30
2019-02-02T14:08:01.396Z,7.20
2019-02-02T14:10:31.939Z,7.00
2019-02-02T14:13:01.182Z,6.80
2019-02-02T14:15:30.476Z,6.60
2019-02-02T14:17:59.758Z,6.60
2019-02-02T14:20:29.031Z,6.50
2019-02-02T14:22:58.314Z,6.50
2019-02-02T14:25:27.819Z,6.60
2019-02-02T14:27:57.038Z,6.50
2019-02-02T14:30:26.898Z,6.60
2019-02-02T14:32:56.158Z,6.60
2019-02-02T14:35:26.890Z,6.50
2019-02-02T14:37:56.532Z,6.50
2019-02-02T14:40:25.900Z,6.60
2019-02-02T14:42:56.857Z,6.60
2019-02-02T14:45:27.616Z,6.50
2019-02-02T14:47:57.573Z,6.50
2019-02-02T14:50:26.941Z,6.40
2019-02-02T14:52:56.384Z,6.50
2019-02-02T14:55:27.736Z,6.50
2019-02-02T14:57:57.572Z,6.40
2019-02-02T15:00:28.614Z,6.30
2019-02-02T15:02:58.176Z,6.40
2019-02-02T15:05:28.132Z,6.30
2019-02-02T15:07:57.469Z,6.30
2019-02-02T15:10:26.849Z,6.30
2019-02-02T15:12:56.276Z,6.20
2019-02-02T15:15:25.619Z,6.10
2019-02-02T15:17:55.024Z,6.10
2019-02-02T15:20:27.017Z,6.10
2019-02-02T15:22:57.871Z,6.20
2019-02-02T15:25:28.298Z,6.30
2019-02-02T15:27:58.735Z,6.30
2019-02-02T15:30:29.411Z,6.20
2019-02-02T15:32:58.801Z,6.20
2019-02-02T15:35:47.218Z,6.30
2019-02-02T15:38:19.047Z,6.30
2019-02-02T15:40:58.716Z,6.20
2019-02-02T15:43:22.169Z,6.00
2019-02-02T15:45:52.793Z,5.90
2019-02-02T15:48:22.407Z,5.80
2019-02-02T15:50:51.729Z,5.90
2019-02-02T15:53:22.208Z,5.90
2019-02-02T15:55:51.621Z,5.70
2019-02-02T15:58:21.056Z,5.70
2019-02-02T16:00:52.745Z,5.50
2019-02-02T16:03:22.172Z,5.40
2019-02-02T16:05:51.699Z,5.40
2019-02-02T16:08:21.135Z,5.40
2019-02-02T16:10:50.714Z,5.30
2019-02-02T16:13:20.178Z,5.20
2019-02-02T16:15:52.284Z,5.00
2019-02-02T16:18:21.590Z,4.90
2019-02-02T16:20:50.945Z,4.70
2019-02-02T16:23:21.660Z,4.60
2019-02-02T16:25:51.083Z,4.50
2019-02-02T16:28:20.451Z,4.40
2019-02-02T16:30:49.874Z,4.40
2019-02-02T16:33:19.219Z,4.30
2019-02-02T16:35:48.643Z,4.20
2019-02-02T16:38:18.354Z,4.20
2019-02-02T16:40:47.681Z,4.10
2019-02-02T16:43:19.074Z,4.10
2019-02-02T16:45:48.947Z,4.00
2019-02-02T16:48:18.373Z,4.00
2019-02-02T16:51:06.774Z,3.90
2019-02-02T16:53:36.146Z,3.90
2019-02-02T16:56:05.965Z,3.80
2019-02-02T16:58:37.598Z,3.70
2019-02-02T17:01:06.425Z,3.70
2019-02-02T17:03:35.727Z,3.60
2019-02-02T17:06:05.197Z,3.60
2019-02-02T17:08:34.526Z,3.50
2019-02-02T17:11:04.198Z,3.50
2019-02-02T17:13:33.841Z,3.50
2019-02-02T17:16:03.561Z,3.50
2019-02-02T17:18:33.106Z,3.50
2019-02-02T17:21:02.527Z,3.50
2019-02-02T17:23:31.880Z,3.50
2019-02-02T17:26:01.185Z,3.40
2019-02-02T17:28:30.552Z,3.40
2019-02-02T17:30:59.890Z,3.50
2019-02-02T17:33:31.098Z,3.40
2019-02-02T17:36:00.834Z,3.40
2019-02-02T17:38:30.162Z,3.50
2019-02-02T17:40:59.606Z,3.40
2019-02-02T17:43:28.872Z,3.30
2019-02-02T17:45:58.374Z,3.40
2019-02-02T17:48:27.787Z,3.30
2019-02-02T17:50:57.160Z,3.40
2019-02-02T17:53:26.866Z,3.40
2019-02-02T17:55:58.214Z,3.30
2019-02-02T17:58:38.980Z,3.40
2019-02-02T18:01:00.746Z,3.40
2019-02-02T18:03:32.244Z,3.40
2019-02-02T18:06:01.930Z,3.40
2019-02-02T18:08:31.333Z,3.40
2019-02-02T18:11:07.088Z,3.30
2019-02-02T18:13:37.974Z,3.20
2019-02-02T18:16:07.244Z,3.30
2019-02-02T18:18:36.523Z,3.30
2019-02-02T18:21:11.945Z,3.30
2019-02-02T18:23:41.402Z,3.20
2019-02-02T18:26:10.859Z,3.10
2019-02-02T18:28:40.188Z,3.20
2019-02-02T18:31:09.546Z,3.20
2019-02-02T18:33:38.959Z,3.10
2019-02-02T18:36:08.416Z,3.10
2019-02-02T18:38:37.797Z,3.10
2019-02-02T18:41:08.547Z,3.10
2019-02-02T18:43:37.993Z,3.10
2019-02-02T18:46:08.418Z,3.00
2019-02-02T18:48:37.866Z,3.00
2019-02-02T18:51:07.645Z,3.00
2019-02-02T18:53:38.471Z,3.00
2019-02-02T18:56:13.211Z,2.90
2019-02-02T18:58:42.951Z,3.00
2019-02-02T19:01:15.195Z,2.90
2019-02-02T19:03:46.027Z,2.80
2019-02-02T19:06:16.437Z,2.80
2019-02-02T19:08:46.188Z,2.80
2019-02-02T19:11:15.752Z,2.80
2019-02-02T19:13:45.209Z,2.80
2019-02-02T19:16:14.703Z,2.90
2019-02-02T19:18:44.639Z,2.80
2019-02-02T19:21:15.483Z,2.90
2019-02-02T19:23:45.124Z,2.90
2019-02-02T19:26:15.042Z,2.90
2019-02-02T19:28:44.452Z,2.90
2019-02-02T19:31:14.458Z,2.90
2019-02-02T19:33:44.349Z,2.80
2019-02-02T19:36:13.736Z,2.80
2019-02-02T19:38:52.798Z,2.70
2019-02-02T19:41:22.193Z,2.80
2019-02-02T19:43:51.776Z,2.80
2019-02-02T19:46:21.227Z,2.80
2019-02-02T19:48:51.211Z,2.80
2019-02-02T19:51:20.645Z,2.80
2019-02-02T19:53:50.153Z,2.70
2019-02-02T19:56:21.095Z,2.70
2019-02-02T19:58:50.845Z,2.60
2019-02-02T20:01:39.330Z,2.50
2019-02-02T20:04:08.842Z,2.60
2019-02-02T20:06:38.548Z,2.60
2019-02-02T20:09:09.256Z,2.70
2019-02-02T20:11:39.014Z,2.70
2019-02-02T20:14:08.964Z,2.50
2019-02-02T20:16:38.412Z,2.40
2019-02-02T20:19:08.425Z,2.40
2019-02-02T20:21:39.407Z,2.40
2019-02-02T20:24:09.961Z,2.40
2019-02-02T20:26:39.585Z,2.30
2019-02-02T20:29:28.380Z,2.30
2019-02-02T20:31:58.895Z,2.30
2019-02-02T20:34:28.766Z,2.20
2019-02-02T20:36:58.499Z,2.00
2019-02-02T20:39:27.975Z,2.00
2019-02-02T20:42:00.169Z,2.00
2019-02-02T20:44:48.957Z,2.00
2019-02-02T20:47:19.187Z,1.90
2019-02-02T20:49:49.076Z,1.90
2019-02-02T20:52:18.756Z,1.90
2019-02-02T20:54:48.596Z,2.00
2019-02-02T20:57:18.134Z,2.10
2019-02-02T20:59:47.652Z,2.10
2019-02-02T21:02:17.059Z,2.10
2019-02-02T21:04:46.565Z,2.20
2019-02-02T21:07:17.505Z,2.20
2019-02-02T21:09:50.324Z,2.20
2019-02-02T21:12:19.783Z,2.40
2019-02-02T21:14:49.247Z,2.50
2019-02-02T21:17:18.694Z,2.40
2019-02-02T21:19:48.247Z,2.40
2019-02-02T21:22:36.704Z,2.50
2019-02-02T21:25:07.354Z,2.60
2019-02-02T21:27:36.812Z,2.50
2019-02-02T21:30:10.526Z,2.40
2019-02-02T21:32:40.008Z,2.50
2019-02-02T21:35:09.647Z,2.60
2019-02-02T21:37:39.804Z,2.50
2019-02-02T21:40:13.710Z,2.50
2019-02-02T21:42:42.857Z,2.60
2019-02-02T21:45:13.048Z,2.60
2019-02-02T21:47:42.474Z,2.60
2019-02-02T21:50:15.158Z,2.60
2019-02-02T21:52:44.586Z,2.70
2019-02-02T21:55:33.353Z,2.70
2019-02-02T21:58:03.107Z,2.70
2019-02-02T22:00:38.033Z,2.80
2019-02-02T22:03:08.064Z,2.80
2019-02-02T22:05:37.557Z,2.80
2019-02-02T22:08:11.112Z,2.80
2019-02-02T22:10:40.840Z,2.80
2019-02-02T22:13:10.555Z,2.80
2019-02-02T22:15:39.994Z,2.70
2019-02-02T22:18:09.428Z,2.80
2019-02-02T22:20:38.877Z,2.90
2019-02-02T22:23:08.719Z,3.00
2019-02-02T22:25:38.150Z,3.00
2019-02-02T22:28:07.390Z,3.00
2019-02-02T22:30:37.738Z,3.00
2019-02-02T22:33:07.286Z,3.00
2019-02-02T22:35:36.612Z,3.00
2019-02-02T22:38:08.254Z,3.00
2019-02-02T22:40:37.756Z,3.00
2019-02-02T22:43:07.174Z,3.10
2019-02-02T22:45:36.578Z,3.10
2019-02-02T22:48:06.765Z,3.00
2019-02-02T22:50:36.134Z,3.00
2019-02-02T22:53:05.525Z,3.00
2019-02-02T22:55:34.766Z,3.00
2019-02-02T22:58:04.212Z,2.90
2019-02-02T23:00:57.637Z,2.90
2019-02-02T23:03:30.602Z,2.90
2019-02-02T23:06:39.344Z,2.90
2019-02-02T23:09:51.717Z,2.90
2019-02-02T23:12:27.760Z,2.90
2019-02-02T23:15:26.578Z,2.80
2019-02-02T23:17:55.869Z,2.90
2019-02-02T23:20:25.125Z,2.80
2019-02-02T23:22:54.349Z,2.80
2019-02-02T23:25:23.590Z,2.80
2019-02-02T23:27:52.965Z,2.90
2019-02-02T23:30:22.244Z,2.80
2019-02-02T23:32:51.522Z,2.80
2019-02-02T23:35:20.813Z,2.90
2019-02-02T23:37:50.141Z,2.90
2019-02-02T23:40:19.418Z,2.90
2019-02-02T23:42:48.917Z,2.80
2019-02-02T23:45:18.348Z,2.70
2019-02-02T23:47:47.606Z,2.70
2019-02-02T23:50:16.880Z,2.60
2019-02-02T23:52:46.103Z,2.60
2019-02-02T23:55:15.402Z,2.60
2019-02-02T23:57:44.601Z,2.70
